createdAt,value
2018-06-21T00:01:20.842Z,3.03
2018-06-21T00:03:48.736Z,3.70
2018-06-21T00:06:16.537Z,3.70
2018-06-21T00:08:44.313Z,3.63
2018-06-21T00:11:12.120Z,3.90
2018-06-21T00:13:39.977Z,3.30
2018-06-21T00:16:08.717Z,3.47
2018-06-21T00:18:36.555Z,4.10
2018-06-21T00:21:04.493Z,3.80
2018-06-21T00:23:32.653Z,3.63
2018-06-21T00:26:00.413Z,3.70
2018-06-21T00:28:28.272Z,3.70
2018-06-21T00:30:56.089Z,3.47
2018-06-21T00:33:23.983Z,3.90
2018-06-21T00:35:51.859Z,3.47
2018-06-21T00:38:19.691Z,3.80
2018-06-21T00:40:47.513Z,3.83
2018-06-21T00:43:15.192Z,4.27
2018-06-21T00:45:43.014Z,4.57
2018-06-21T00:48:10.809Z,3.83
2018-06-21T00:50:38.464Z,4.07
2018-06-21T00:53:06.232Z,4.43
2018-06-21T00:55:45.228Z,3.47
2018-06-21T00:58:13.041Z,3.67
2018-06-21T01:00:40.885Z,4.00
2018-06-21T01:03:08.651Z,4.07
2018-06-21T01:05:36.532Z,3.53
2018-06-21T01:08:04.437Z,3.63
2018-06-21T01:10:32.246Z,4.13
2018-06-21T01:13:00.033Z,3.77
2018-06-21T01:15:27.887Z,4.10
2018-06-21T01:17:55.558Z,3.90
2018-06-21T01:20:23.705Z,4.20
2018-06-21T01:22:52.408Z,3.93
2018-06-21T01:25:20.243Z,3.90
2018-06-21T01:27:48.181Z,4.27
2018-06-21T01:30:15.948Z,4.20
2018-06-21T01:32:43.747Z,4.00
2018-06-21T01:35:11.533Z,3.80
2018-06-21T01:37:39.205Z,3.80
2018-06-21T01:40:07.041Z,4.00
2018-06-21T01:42:34.833Z,4.00
2018-06-21T01:45:02.509Z,4.57
2018-06-21T01:47:30.277Z,4.00
2018-06-21T01:49:58.177Z,3.93
2018-06-21T01:52:25.981Z,3.97
2018-06-21T01:54:54.017Z,3.87
2018-06-21T01:57:21.789Z,4.00
2018-06-21T01:59:49.584Z,3.63
2018-06-21T02:02:17.237Z,4.17
2018-06-21T02:04:45.039Z,3.90
2018-06-21T02:07:12.802Z,3.90
2018-06-21T02:09:40.583Z,4.40
2018-06-21T02:12:08.449Z,4.20
2018-06-21T02:14:36.249Z,4.00
2018-06-21T02:17:04.174Z,4.20
2018-06-21T02:19:34.148Z,4.00
2018-06-21T02:22:01.962Z,4.30
2018-06-21T02:24:29.792Z,4.00
2018-06-21T02:26:57.611Z,4.47
2018-06-21T02:29:25.547Z,4.73
2018-06-21T02:32:09.580Z,4.73
2018-06-21T02:34:37.324Z,3.93
2018-06-21T02:37:05.153Z,4.30
2018-06-21T02:39:33.017Z,4.20
2018-06-21T02:42:00.785Z,4.10
2018-06-21T02:44:28.616Z,3.77
2018-06-21T02:46:56.553Z,3.83
2018-06-21T02:49:24.503Z,4.07
2018-06-21T02:51:52.297Z,4.00
2018-06-21T02:54:20.195Z,4.27
2018-06-21T02:56:48.129Z,4.40
2018-06-21T02:59:15.976Z,4.00
2018-06-21T03:01:43.733Z,4.00
2018-06-21T03:04:11.528Z,4.53
2018-06-21T03:06:39.309Z,4.40
2018-06-21T03:09:08.240Z,4.70
2018-06-21T03:24:59.360Z,4.30
2018-06-21T03:27:27.216Z,4.10
2018-06-21T03:29:55.596Z,4.57
2018-06-21T03:32:23.430Z,4.73
2018-06-21T03:34:51.277Z,4.50
2018-06-21T03:37:19.045Z,4.67
2018-06-21T03:39:46.910Z,4.27
2018-06-21T03:55:48.141Z,4.40
2018-06-21T03:58:15.936Z,4.27
2018-06-21T04:00:43.713Z,4.80
2018-06-21T04:03:11.625Z,4.40
2018-06-21T04:05:39.522Z,4.50
2018-06-21T04:08:07.338Z,4.67
2018-06-21T04:10:35.201Z,4.47
2018-06-21T04:13:03.385Z,5.13
2018-06-21T04:28:54.604Z,4.10
2018-06-21T04:31:22.289Z,4.30
2018-06-21T04:33:50.190Z,4.20
2018-06-21T04:36:17.981Z,4.37
2018-06-21T04:38:45.757Z,4.63
2018-06-21T04:41:13.573Z,4.60
2018-06-21T04:43:41.405Z,4.30
2018-06-21T04:46:09.229Z,4.53
2018-06-21T04:48:37.071Z,4.77
2018-06-21T04:51:04.839Z,4.57
2018-06-21T04:53:32.697Z,4.70
2018-06-21T04:56:00.531Z,4.90
2018-06-21T04:58:28.488Z,4.47
2018-06-21T05:00:56.650Z,4.40
2018-06-21T05:03:24.698Z,4.27
2018-06-21T05:05:52.585Z,5.10
2018-06-21T05:08:20.452Z,5.50
2018-06-21T05:10:48.429Z,4.53
2018-06-21T05:13:16.397Z,4.43
2018-06-21T05:15:44.327Z,4.40
2018-06-21T05:31:34.891Z,4.73
2018-06-21T05:34:02.748Z,4.70
2018-06-21T05:36:30.536Z,4.80
2018-06-21T05:38:59.297Z,5.00
2018-06-21T05:41:27.341Z,4.93
2018-06-21T05:43:55.288Z,4.80
2018-06-21T05:46:23.043Z,5.23
2018-06-21T05:48:50.913Z,4.80
2018-06-21T05:51:18.909Z,5.10
2018-06-21T05:53:46.729Z,5.10
2018-06-21T05:56:14.693Z,4.77
2018-06-21T05:58:42.469Z,4.30
2018-06-21T06:01:10.257Z,4.97
2018-06-21T06:03:38.171Z,4.67
2018-06-21T06:06:05.822Z,4.90
2018-06-21T06:08:33.595Z,5.00
2018-06-21T06:11:04.849Z,4.43
2018-06-21T06:13:32.483Z,4.50
2018-06-21T06:16:00.277Z,4.80
2018-06-21T06:31:52.443Z,5.50
2018-06-21T06:34:20.389Z,5.50
2018-06-21T06:36:48.237Z,5.33
2018-06-21T06:39:20.649Z,5.30
2018-06-21T06:41:49.469Z,5.47
2018-06-21T06:44:17.632Z,4.87
2018-06-21T06:46:45.725Z,5.37
2018-06-21T06:49:13.565Z,5.60
2018-06-21T06:51:41.337Z,5.37
2018-06-21T07:07:36.573Z,5.30
2018-06-21T07:10:04.540Z,5.00
2018-06-21T07:12:32.407Z,5.20
2018-06-21T07:15:00.169Z,5.27
2018-06-21T07:17:28.113Z,5.40
2018-06-21T07:19:56.385Z,5.20
2018-06-21T07:22:24.170Z,5.27
2018-06-21T07:24:52.045Z,5.70
2018-06-21T07:27:19.873Z,5.47
2018-06-21T07:29:47.682Z,5.47
2018-06-21T07:32:15.846Z,5.83
2018-06-21T07:34:43.693Z,5.77
2018-06-21T07:37:11.541Z,5.73
2018-06-21T07:39:39.341Z,5.50
2018-06-21T07:42:07.177Z,6.43
2018-06-21T07:44:35.022Z,5.23
2018-06-21T07:47:02.785Z,5.57
2018-06-21T07:49:30.597Z,5.60
2018-06-21T07:51:58.449Z,5.60
2018-06-21T07:54:26.806Z,6.00
2018-06-21T07:56:54.577Z,5.93
2018-06-21T07:59:22.370Z,5.50
2018-06-21T08:01:50.146Z,5.37
2018-06-21T08:04:17.935Z,5.70
2018-06-21T08:06:45.761Z,5.77
2018-06-21T08:09:13.781Z,5.83
2018-06-21T08:11:41.669Z,5.90
2018-06-21T08:14:09.833Z,5.90
2018-06-21T08:16:37.770Z,5.58
2018-06-21T08:19:05.660Z,6.00
2018-06-21T08:21:33.713Z,6.45
2018-06-21T08:24:01.485Z,6.50
2018-06-21T08:26:29.132Z,6.30
2018-06-21T08:28:57.359Z,5.97
2018-06-21T08:31:25.180Z,6.50
2018-06-21T08:33:53.075Z,6.05
2018-06-21T08:36:20.993Z,6.00
2018-06-21T08:38:49.004Z,5.67
2018-06-21T08:41:16.703Z,5.85
2018-06-21T08:43:44.512Z,6.37
2018-06-21T08:46:12.448Z,6.65
2018-06-21T08:48:40.252Z,6.65
2018-06-21T08:51:07.932Z,7.03
2018-06-21T08:53:35.781Z,7.50
2018-06-21T08:56:03.424Z,7.05
2018-06-21T08:58:31.294Z,6.25
2018-06-21T09:00:59.117Z,6.17
2018-06-21T09:03:27.373Z,6.03
2018-06-21T09:05:55.212Z,6.75
2018-06-21T09:08:22.938Z,6.28
2018-06-21T09:10:50.709Z,5.55
2018-06-21T09:13:18.549Z,6.35
2018-06-21T09:15:46.525Z,6.47
2018-06-21T09:18:14.396Z,6.47
2018-06-21T09:20:42.535Z,6.42
2018-06-21T09:23:10.305Z,6.20
2018-06-21T09:25:38.266Z,5.30
2018-06-21T09:28:06.056Z,6.03
2018-06-21T09:30:33.841Z,5.65
2018-06-21T09:33:01.607Z,5.60
2018-06-21T09:35:30.821Z,5.90
2018-06-21T09:38:04.772Z,5.42
2018-06-21T09:40:37.994Z,5.78
2018-06-21T09:58:50.478Z,6.28
2018-06-21T10:01:18.273Z,6.47
2018-06-21T10:03:46.083Z,6.17
2018-06-21T10:06:13.929Z,6.62
2018-06-21T10:08:41.817Z,6.17
2018-06-21T10:11:09.580Z,6.72
2018-06-21T10:13:37.436Z,6.22
2018-06-21T10:16:05.209Z,6.40
2018-06-21T10:18:33.026Z,6.20
2018-06-21T10:21:00.824Z,6.22
2018-06-21T10:23:28.824Z,6.22
2018-06-21T10:25:56.942Z,5.55
2018-06-21T10:28:24.753Z,5.85
2018-06-21T10:30:52.549Z,6.00
2018-06-21T10:33:20.312Z,5.90
2018-06-21T10:35:48.122Z,5.30
2018-06-21T10:51:40.209Z,5.55
2018-06-21T10:54:08.021Z,5.60
2018-06-21T10:56:35.801Z,5.72
2018-06-21T10:59:03.653Z,5.72
2018-06-21T11:01:31.442Z,5.72
2018-06-21T11:04:00.351Z,5.83
2018-06-21T11:06:28.534Z,5.12
2018-06-21T11:08:56.345Z,5.67
2018-06-21T11:11:24.200Z,5.40
2018-06-21T11:13:52.026Z,5.00
2018-06-21T11:16:20.918Z,5.25
2018-06-21T11:18:48.738Z,5.20
2018-06-21T11:21:16.578Z,5.37
2018-06-21T11:23:44.480Z,5.40
2018-06-21T11:26:12.302Z,5.20
2018-06-21T11:28:40.072Z,5.87
2018-06-21T11:31:07.954Z,5.00
2018-06-21T11:33:35.765Z,4.87
2018-06-21T11:36:03.594Z,4.92
2018-06-21T11:38:31.389Z,5.08
2018-06-21T11:40:59.284Z,4.65
2018-06-21T11:43:27.071Z,4.78
2018-06-21T11:45:54.880Z,5.00
2018-06-21T11:48:22.653Z,4.87
2018-06-21T11:50:50.455Z,4.75
2018-06-21T11:53:18.256Z,4.58
2018-06-21T11:55:46.061Z,4.65
2018-06-21T12:11:23.977Z,4.20
2018-06-21T12:13:51.901Z,4.60
2018-06-21T12:16:20.305Z,4.40
2018-06-21T12:18:48.352Z,4.92
2018-06-21T12:21:16.446Z,4.45
2018-06-21T12:23:44.817Z,4.35
2018-06-21T12:26:13.088Z,4.03
2018-06-21T12:28:41.016Z,4.20
2018-06-21T12:31:08.859Z,4.28
2018-06-21T12:47:04.574Z,4.10
2018-06-21T12:49:32.334Z,3.98
2018-06-21T12:52:00.376Z,4.42
2018-06-21T12:54:28.299Z,4.20
2018-06-21T12:56:56.390Z,4.37
2018-06-21T12:59:24.314Z,4.28
2018-06-21T13:01:52.383Z,3.72
2018-06-21T13:04:20.165Z,3.40
2018-06-21T13:06:48.057Z,3.60
2018-06-21T13:09:27.050Z,3.67
2018-06-21T13:12:34.126Z,3.58
2018-06-21T13:15:02.013Z,3.92
2018-06-21T13:17:31.521Z,3.62
2018-06-21T13:20:00.822Z,3.27
2018-06-21T13:22:28.865Z,3.55
2018-06-21T13:24:56.840Z,3.65
2018-06-21T13:27:24.661Z,3.62
2018-06-21T13:29:52.489Z,3.47
2018-06-21T13:45:30.152Z,3.50
2018-06-21T13:47:57.945Z,3.55
2018-06-21T13:50:25.813Z,3.45
2018-06-21T13:52:53.591Z,3.15
2018-06-21T13:55:21.348Z,3.40
2018-06-21T13:57:49.309Z,3.60
2018-06-21T14:00:17.209Z,3.05
2018-06-21T14:02:45.024Z,3.30
2018-06-21T14:05:13.052Z,3.10
2018-06-21T14:07:40.932Z,3.58
2018-06-21T14:10:08.702Z,3.33
2018-06-21T14:12:36.489Z,3.60
2018-06-21T14:15:04.349Z,3.55
2018-06-21T14:17:32.150Z,3.45
2018-06-21T14:20:00.008Z,3.72
2018-06-21T14:22:27.824Z,3.42
2018-06-21T14:24:55.626Z,2.95
2018-06-21T14:27:23.504Z,2.95
2018-06-21T14:29:51.349Z,2.90
2018-06-21T14:32:19.189Z,3.15
2018-06-21T14:34:47.157Z,3.12
2018-06-21T14:37:15.025Z,3.17
2018-06-21T14:39:42.896Z,3.08
2018-06-21T14:42:10.700Z,2.90
2018-06-21T14:44:38.518Z,2.80
2018-06-21T14:47:06.357Z,3.10
2018-06-21T14:49:34.199Z,3.10
2018-06-21T14:52:02.011Z,2.80
2018-06-21T14:54:29.924Z,3.20
2018-06-21T14:56:57.735Z,3.12
2018-06-21T14:59:25.542Z,3.17
2018-06-21T15:01:53.797Z,3.17
2018-06-21T15:04:21.577Z,3.30
2018-06-21T15:06:49.668Z,3.08
2018-06-21T15:09:17.493Z,2.92
2018-06-21T15:11:45.286Z,3.50
2018-06-21T15:14:13.223Z,3.23
2018-06-21T15:16:41.065Z,3.50
2018-06-21T15:19:08.835Z,3.40
2018-06-21T15:21:36.737Z,3.27
2018-06-21T15:24:04.525Z,3.93
2018-06-21T15:26:32.428Z,3.37
2018-06-21T15:29:00.257Z,3.30
2018-06-21T15:35:02.468Z,3.43
2018-06-21T15:37:30.435Z,3.37
2018-06-21T15:39:58.392Z,3.13
2018-06-21T15:42:26.267Z,3.23
2018-06-21T15:44:54.117Z,3.47
2018-06-21T15:47:21.953Z,3.30
2018-06-21T15:49:49.832Z,3.30
2018-06-21T15:52:17.553Z,3.10
2018-06-21T15:54:45.313Z,3.37
2018-06-21T15:57:13.108Z,3.50
2018-06-21T15:59:40.981Z,3.70
2018-06-21T16:02:08.746Z,3.50
2018-06-21T16:04:36.589Z,3.40
2018-06-21T16:07:04.523Z,3.30
2018-06-21T16:09:32.555Z,3.50
2018-06-21T16:12:00.433Z,4.10
2018-06-21T16:14:28.924Z,3.40
2018-06-21T16:16:56.992Z,3.20
2018-06-21T16:19:24.905Z,3.90
2018-06-21T16:21:53.140Z,3.50
2018-06-21T16:25:01.658Z,3.23
2018-06-21T16:37:32.604Z,3.33
2018-06-21T16:40:00.894Z,3.63
2018-06-21T16:42:28.845Z,3.50
2018-06-21T16:44:56.673Z,3.50
2018-06-21T16:50:56.456Z,3.40
2018-06-21T17:07:00.485Z,3.10
2018-06-21T17:09:28.353Z,3.20
2018-06-21T17:11:56.205Z,3.20
2018-06-21T17:14:24.049Z,3.20
2018-06-21T17:16:52.123Z,3.67
2018-06-21T17:19:20.289Z,3.27
2018-06-21T17:21:48.084Z,3.00
2018-06-21T17:24:15.862Z,3.30
2018-06-21T17:26:43.929Z,3.10
2018-06-21T17:29:11.862Z,3.27
2018-06-21T17:31:40.580Z,4.10
2018-06-21T17:34:08.328Z,3.30
2018-06-21T17:36:36.226Z,3.20
2018-06-21T17:39:06.714Z,3.30
2018-06-21T17:55:18.815Z,3.47
2018-06-21T17:57:48.049Z,3.43
2018-06-21T18:06:58.169Z,2.90
2018-06-21T18:23:05.728Z,2.93
2018-06-21T18:25:33.653Z,3.13
2018-06-21T18:31:40.800Z,3.43
2018-06-21T18:47:32.757Z,3.43
2018-06-21T18:50:52.051Z,3.70
2018-06-21T19:03:33.917Z,3.90
2018-06-21T19:06:50.548Z,4.00
2018-06-21T19:12:38.921Z,3.17
2018-06-21T19:15:06.812Z,3.60
2018-06-21T19:17:34.644Z,3.40
2018-06-21T19:20:02.561Z,3.20
2018-06-21T19:22:30.661Z,3.07
2018-06-21T19:24:58.562Z,3.10
2018-06-21T19:27:26.316Z,3.27
2018-06-21T19:29:54.101Z,3.07
2018-06-21T19:32:22.042Z,3.10
2018-06-21T19:34:50.045Z,3.07
2018-06-21T19:37:17.833Z,3.20
2018-06-21T19:39:45.748Z,3.17
2018-06-21T19:42:13.532Z,3.43
2018-06-21T19:44:41.465Z,3.40
2018-06-21T19:47:09.314Z,3.63
2018-06-21T20:03:08.717Z,4.77
2018-06-21T20:06:14.146Z,3.30
2018-06-21T20:12:53.483Z,3.90
2018-06-21T20:15:21.345Z,3.73
2018-06-21T20:17:49.145Z,5.27
2018-06-21T20:20:22.477Z,5.37
2018-06-21T20:22:50.237Z,5.27
2018-06-21T20:25:18.005Z,4.93
2018-06-21T20:27:45.801Z,5.20
2018-06-21T20:30:14.517Z,5.00
2018-06-21T20:32:42.279Z,4.67
2018-06-21T20:35:10.068Z,4.60
2018-06-21T20:37:37.865Z,4.13
2018-06-21T20:40:05.656Z,3.90
2018-06-21T20:42:33.909Z,3.20
2018-06-21T20:45:02.689Z,3.37
2018-06-21T20:47:30.754Z,2.97
2018-06-21T20:49:58.645Z,3.07
2018-06-21T20:52:28.797Z,2.63
2018-06-21T20:54:57.333Z,2.90
2018-06-21T20:57:25.585Z,3.23
2018-06-21T20:59:53.545Z,2.60
2018-06-21T21:02:21.341Z,2.90
2018-06-21T21:05:13.046Z,2.70
2018-06-21T21:07:41.258Z,2.77
2018-06-21T21:10:10.209Z,2.53
2018-06-21T21:12:38.161Z,2.23
2018-06-21T21:15:11.165Z,2.67
2018-06-21T21:31:01.209Z,2.57
2018-06-21T21:34:19.269Z,2.50
2018-06-21T21:36:47.151Z,2.50
2018-06-21T21:39:14.970Z,2.50
2018-06-21T21:41:42.797Z,2.50
2018-06-21T21:47:32.563Z,2.50
2018-06-21T22:00:05.229Z,3.20
2018-06-21T22:02:33.329Z,3.40
2018-06-21T22:05:01.160Z,3.30
2018-06-21T22:07:29.211Z,4.23
2018-06-21T22:10:13.680Z,2.90
2018-06-21T22:12:41.513Z,2.87
2018-06-21T22:28:24.917Z,2.57
2018-06-21T22:30:52.560Z,2.83
2018-06-21T22:36:41.311Z,2.30
2018-06-21T22:39:11.105Z,2.67
2018-06-21T22:41:39.159Z,2.20
2018-06-21T22:47:27.712Z,2.60
2018-06-21T22:59:45.822Z,2.10
2018-06-21T23:05:34.336Z,2.13
2018-06-21T23:08:02.498Z,2.30
2018-06-21T23:10:32.958Z,2.57
2018-06-21T23:16:21.833Z,2.10
2018-06-21T23:19:00.964Z,2.47
2018-06-21T23:24:49.422Z,2.23
2018-06-21T23:37:19.174Z,2.70
2018-06-21T23:39:47.008Z,3.07
2018-06-21T23:42:14.653Z,2.53
2018-06-21T23:44:42.518Z,2.87
2018-06-21T23:47:10.384Z,2.67
2018-06-21T23:49:38.230Z,2.53
2018-06-21T23:52:06.083Z,2.70
2018-06-21T23:54:34.151Z,3.00
2018-06-21T23:57:02.142Z,2.87
2018-06-21T23:59:30.013Z,3.10
